sensor_id;sensor_type;location;lat;lon;timestamp;pressure;altitude;pressure_sealevel;temperature;humidity
50852;BME280;43953;45.508;-122.806;2024-03-06T00:00:27;100737.28;;;24.44;32.44
50852;BME280;43953;45.508;-122.806;2024-03-06T00:00:59;100726.25;;;24.44;32.58
50852;BME280;43953;45.508;-122.806;2024-03-06T00:01:31;100724.31;;;24.45;32.36
50852;BME280;43953;45.508;-122.806;2024-03-06T00:02:03;100729.00;;;24.44;32.24
50852;BME280;43953;45.508;-122.806;2024-03-06T00:02:35;100734.53;;;24.44;32.23
50852;BME280;43953;45.508;-122.806;2024-03-06T00:03:07;100729.00;;;24.44;32.54
50852;BME280;43953;45.508;-122.806;2024-03-06T00:03:38;100731.75;;;24.44;32.44
50852;BME280;43953;45.508;-122.806;2024-03-06T00:04:10;100732.91;;;24.43;32.26
50852;BME280;43953;45.508;-122.806;2024-03-06T00:04:42;100727.38;;;24.43;32.37
50852;BME280;43953;45.508;-122.806;2024-03-06T00:05:14;100735.66;;;24.43;32.38
50852;BME280;43953;45.508;-122.806;2024-03-06T00:05:45;100732.06;;;24.43;32.26
50852;BME280;43953;45.508;-122.806;2024-03-06T00:06:17;100731.25;;;24.42;32.30
50852;BME280;43953;45.508;-122.806;2024-03-06T00:06:49;100742.25;;;24.42;32.56
50852;BME280;43953;45.508;-122.806;2024-03-06T00:07:23;100735.66;;;24.43;32.26
50852;BME280;43953;45.508;-122.806;2024-03-06T00:07:54;100733.38;;;24.45;32.30
50852;BME280;43953;45.508;-122.806;2024-03-06T00:08:26;100732.28;;;24.46;32.59
50852;BME280;43953;45.508;-122.806;2024-03-06T00:09:00;100732.50;;;24.50;32.61
50852;BME280;43953;45.508;-122.806;2024-03-06T00:09:33;100729.44;;;24.51;32.63
50852;BME280;43953;45.508;-122.806;2024-03-06T00:10:05;100733.22;;;24.56;32.68
50852;BME280;43953;45.508;-122.806;2024-03-06T00:10:37;100739.22;;;24.58;32.39
50852;BME280;43953;45.508;-122.806;2024-03-06T00:11:09;100738.63;;;24.61;32.42
50852;BME280;43953;45.508;-122.806;2024-03-06T00:11:40;100732.81;;;24.62;32.33
50852;BME280;43953;45.508;-122.806;2024-03-06T00:12:12;100731.41;;;24.65;32.45
50852;BME280;43953;45.508;-122.806;2024-03-06T00:12:44;100731.09;;;24.66;32.53
50852;BME280;43953;45.508;-122.806;2024-03-06T00:13:16;100727.25;;;24.67;32.43
50852;BME280;43953;45.508;-122.806;2024-03-06T00:13:47;100724.16;;;24.69;32.20
50852;BME280;43953;45.508;-122.806;2024-03-06T00:14:19;100724.97;;;24.69;32.35
50852;BME280;43953;45.508;-122.806;2024-03-06T00:14:53;100727.44;;;24.71;31.89
50852;BME280;43953;45.508;-122.806;2024-03-06T00:15:24;100729.06;;;24.72;32.01
50852;BME280;43953;45.508;-122.806;2024-03-06T00:15:56;100729.06;;;24.72;32.25
50852;BME280;43953;45.508;-122.806;2024-03-06T00:16:28;100733.75;;;24.71;32.24
50852;BME280;43953;45.508;-122.806;2024-03-06T00:16:59;100735.69;;;24.71;31.99
50852;BME280;43953;45.508;-122.806;2024-03-06T00:17:31;100734.88;;;24.70;32.22
50852;BME280;43953;45.508;-122.806;2024-03-06T00:18:03;100726.91;;;24.69;32.20
50852;BME280;43953;45.508;-122.806;2024-03-06T00:18:36;100733.56;;;24.68;32.16
50852;BME280;43953;45.508;-122.806;2024-03-06T00:19:08;100733.84;;;24.66;32.17
50852;BME280;43953;45.508;-122.806;2024-03-06T00:19:39;100727.53;;;24.66;32.27
50852;BME280;43953;45.508;-122.806;2024-03-06T00:20:11;100731.41;;;24.65;31.89
50852;BME280;43953;45.508;-122.806;2024-03-06T00:20:43;100728.94;;;24.63;31.98
50852;BME280;43953;45.508;-122.806;2024-03-06T00:21:15;100730.88;;;24.63;32.05
50852;BME280;43953;45.508;-122.806;2024-03-06T00:21:47;100728.13;;;24.63;32.29
50852;BME280;43953;45.508;-122.806;2024-03-06T00:22:19;100729.25;;;24.62;32.38
50852;BME280;43953;45.508;-122.806;2024-03-06T00:22:51;100733.13;;;24.61;32.13
50852;BME280;43953;45.508;-122.806;2024-03-06T00:23:22;100732.31;;;24.60;32.12
50852;BME280;43953;45.508;-122.806;2024-03-06T00:23:54;100724.38;;;24.59;32.20
50852;BME280;43953;45.508;-122.806;2024-03-06T00:24:26;100734.56;;;24.58;32.13
50852;BME280;43953;45.508;-122.806;2024-03-06T00:24:58;100729.06;;;24.58;32.27
50852;BME280;43953;45.508;-122.806;2024-03-06T00:25:30;100729.88;;;24.59;32.35
50852;BME280;43953;45.508;-122.806;2024-03-06T00:26:02;100728.22;;;24.58;32.06
50852;BME280;43953;45.508;-122.806;2024-03-06T00:26:34;100723.31;;;24.55;32.21
50852;BME280;43953;45.508;-122.806;2024-03-06T00:27:06;100726.59;;;24.57;32.03
50852;BME280;43953;45.508;-122.806;2024-03-06T00:27:38;100725.78;;;24.56;32.35
50852;BME280;43953;45.508;-122.806;2024-03-06T00:28:09;100728.81;;;24.55;32.22
50852;BME280;43953;45.508;-122.806;2024-03-06T00:28:41;100737.06;;;24.55;32.08
50852;BME280;43953;45.508;-122.806;2024-03-06T00:29:13;100734.31;;;24.55;32.20
50852;BME280;43953;45.508;-122.806;2024-03-06T00:29:45;100727.19;;;24.54;32.12
50852;BME280;43953;45.508;-122.806;2024-03-06T00:30:17;100732.69;;;24.54;32.29
50852;BME280;43953;45.508;-122.806;2024-03-06T00:30:49;100722.81;;;24.52;32.14
50852;BME280;43953;45.508;-122.806;2024-03-06T00:31:21;100729.44;;;24.51;32.16
50852;BME280;43953;45.508;-122.806;2024-03-06T00:31:53;100728.31;;;24.52;32.04
50852;BME280;43953;45.508;-122.806;2024-03-06T00:32:25;100730.25;;;24.52;32.12
50852;BME280;43953;45.508;-122.806;2024-03-06T00:32:56;100729.44;;;24.51;32.04
50852;BME280;43953;45.508;-122.806;2024-03-06T00:33:28;100734.13;;;24.51;31.89
50852;BME280;43953;45.508;-122.806;2024-03-06T00:34:00;100724.25;;;24.50;32.14
50852;BME280;43953;45.508;-122.806;2024-03-06T00:34:32;100721.50;;;24.50;32.18
50852;BME280;43953;45.508;-122.806;2024-03-06T00:35:04;100721.50;;;24.50;32.46
50852;BME280;43953;45.508;-122.806;2024-03-06T00:35:36;100728.94;;;24.49;32.13
50852;BME280;43953;45.508;-122.806;2024-03-06T00:36:08;100730.03;;;24.48;32.25
50852;BME280;43953;45.508;-122.806;2024-03-06T00:36:40;100715.78;;;24.46;32.26
50852;BME280;43953;45.508;-122.806;2024-03-06T00:37:12;100721.28;;;24.46;32.00
50852;BME280;43953;45.508;-122.806;2024-03-06T00:37:44;100720.16;;;24.47;32.32
50852;BME280;43953;45.508;-122.806;2024-03-06T00:38:16;100719.34;;;24.47;32.08
50852;BME280;43953;45.508;-122.806;2024-03-06T00:38:47;100721.28;;;24.46;32.30
50852;BME280;43953;45.508;-122.806;2024-03-06T00:39:19;100719.63;;;24.45;32.07
50852;BME280;43953;45.508;-122.806;2024-03-06T00:39:51;100716.06;;;24.45;32.12
50852;BME280;43953;45.508;-122.806;2024-03-06T00:40:23;100719.63;;;24.45;31.96
50852;BME280;43953;45.508;-122.806;2024-03-06T00:40:55;100719.13;;;24.43;32.28
50852;BME280;43953;45.508;-122.806;2024-03-06T00:41:28;100717.19;;;24.44;31.96
50852;BME280;43953;45.508;-122.806;2024-03-06T00:42:00;100723.50;;;24.44;32.10
50852;BME280;43953;45.508;-122.806;2024-03-06T00:42:31;100721.03;;;24.43;32.38
50852;BME280;43953;45.508;-122.806;2024-03-06T00:43:04;100721.88;;;24.43;32.11
50852;BME280;43953;45.508;-122.806;2024-03-06T00:43:36;100719.13;;;24.43;32.02
50852;BME280;43953;45.508;-122.806;2024-03-06T00:44:08;100727.38;;;24.43;32.16
50852;BME280;43953;45.508;-122.806;2024-03-06T00:44:40;100716.38;;;24.43;32.37
50852;BME280;43953;45.508;-122.806;2024-03-06T00:45:11;100716.88;;;24.45;32.41
50852;BME280;43953;45.508;-122.806;2024-03-06T00:45:43;100722.91;;;24.47;32.21
50852;BME280;43953;45.508;-122.806;2024-03-06T00:46:15;100726.66;;;24.51;32.46
50852;BME280;43953;45.508;-122.806;2024-03-06T00:46:46;100721.97;;;24.52;32.72
50852;BME280;43953;45.508;-122.806;2024-03-06T00:47:18;100717.81;;;24.55;32.43
50852;BME280;43953;45.508;-122.806;2024-03-06T00:47:50;100718.03;;;24.58;32.67
50852;BME280;43953;45.508;-122.806;2024-03-06T00:48:22;100721.28;;;24.60;32.17
50852;BME280;43953;45.508;-122.806;2024-03-06T00:48:54;100725.38;;;24.63;32.33
50852;BME280;43953;45.508;-122.806;2024-03-06T00:49:26;100723.16;;;24.65;32.16
50852;BME280;43953;45.508;-122.806;2024-03-06T00:49:57;100728.34;;;24.66;32.48
50852;BME280;43953;45.508;-122.806;2024-03-06T00:50:29;100717.84;;;24.68;32.33
50852;BME280;43953;45.508;-122.806;2024-03-06T00:51:01;100726.91;;;24.69;31.97
50852;BME280;43953;45.508;-122.806;2024-03-06T00:51:33;100723.88;;;24.70;32.22
50852;BME280;43953;45.508;-122.806;2024-03-06T00:52:08;100724.69;;;24.71;32.15
50852;BME280;43953;45.508;-122.806;2024-03-06T00:52:40;100722.75;;;24.71;31.75
50852;BME280;43953;45.508;-122.806;2024-03-06T00:53:13;100721.13;;;24.70;31.71
50852;BME280;43953;45.508;-122.806;2024-03-06T00:53:45;100717.56;;;24.70;32.15
50852;BME280;43953;45.508;-122.806;2024-03-06T00:54:17;100726.63;;;24.70;31.85
50852;BME280;43953;45.508;-122.806;2024-03-06T00:54:49;100724.16;;;24.69;32.20
50852;BME280;43953;45.508;-122.806;2024-03-06T00:55:20;100719.78;;;24.68;31.98
50852;BME280;43953;45.508;-122.806;2024-03-06T00:55:52;100715.41;;;24.67;31.99
50852;BME280;43953;45.508;-122.806;2024-03-06T00:56:24;100718.16;;;24.67;31.94
50852;BME280;43953;45.508;-122.806;2024-03-06T00:56:56;100719.25;;;24.66;32.02
50852;BME280;43953;45.508;-122.806;2024-03-06T00:57:28;100727.53;;;24.66;31.94
50852;BME280;43953;45.508;-122.806;2024-03-06T00:58:00;100722.34;;;24.64;32.10
50852;BME280;43953;45.508;-122.806;2024-03-06T00:58:32;100722.63;;;24.63;32.23
50852;BME280;43953;45.508;-122.806;2024-03-06T00:59:04;100728.13;;;24.63;32.11
50852;BME280;43953;45.508;-122.806;2024-03-06T00:59:36;100726.50;;;24.62;32.32
50852;BME280;43953;45.508;-122.806;2024-03-06T01:00:08;100724.84;;;24.61;32.31
50852;BME280;43953;45.508;-122.806;2024-03-06T01:00:43;100728.75;;;24.60;32.34
50852;BME280;43953;45.508;-122.806;2024-03-06T01:01:15;100727.13;;;24.59;32.28
50852;BME280;43953;45.508;-122.806;2024-03-06T01:01:48;100700.97;;;24.42;32.40
50852;BME280;43953;45.508;-122.806;2024-03-06T01:02:19;100723.84;;;24.57;31.96
50852;BME280;43953;45.508;-122.806;2024-03-06T01:02:51;100734.03;;;24.56;32.00
50852;BME280;43953;45.508;-122.806;2024-03-06T01:03:23;100723.44;;;24.49;32.36
50852;BME280;43953;45.508;-122.806;2024-03-06T01:03:54;100725.25;;;24.54;32.36
50852;BME280;43953;45.508;-122.806;2024-03-06T01:04:26;100723.91;;;24.51;32.38
50852;BME280;43953;45.508;-122.806;2024-03-06T01:04:58;100729.44;;;24.51;32.49
50852;BME280;43953;45.508;-122.806;2024-03-06T01:05:30;100728.63;;;24.51;32.43
50852;BME280;43953;45.508;-122.806;2024-03-06T01:06:02;100727.81;;;24.50;32.38
50852;BME280;43953;45.508;-122.806;2024-03-06T01:06:34;100727.00;;;24.50;32.42
50852;BME280;43953;45.508;-122.806;2024-03-06T01:07:05;100732.78;;;24.48;32.23
50852;BME280;43953;45.508;-122.806;2024-03-06T01:07:37;100726.78;;;24.46;32.41
50852;BME280;43953;45.508;-122.806;2024-03-06T01:08:10;100732.28;;;24.46;32.36
50852;BME280;43953;45.508;-122.806;2024-03-06T01:08:42;100727.59;;;24.47;32.37
50852;BME280;43953;45.508;-122.806;2024-03-06T01:09:14;100731.75;;;24.44;32.22
50852;BME280;43953;45.508;-122.806;2024-03-06T01:09:46;100729.53;;;24.46;32.34
50852;BME280;43953;45.508;-122.806;2024-03-06T01:10:18;100723.78;;;24.43;32.35
50852;BME280;43953;45.508;-122.806;2024-03-06T01:10:52;100732.56;;;24.45;32.08
50852;BME280;43953;45.508;-122.806;2024-03-06T01:11:25;100729.00;;;24.44;32.29
50852;BME280;43953;45.508;-122.806;2024-03-06T01:11:57;100736.75;;;24.42;32.39
50852;BME280;43953;45.508;-122.806;2024-03-06T01:12:29;100722.47;;;24.40;32.44
50852;BME280;43953;45.508;-122.806;2024-03-06T01:13:01;100733.16;;;24.42;32.19
50852;BME280;43953;45.508;-122.806;2024-03-06T01:13:32;100731.25;;;24.42;32.49
50852;BME280;43953;45.508;-122.806;2024-03-06T01:14:04;100731.25;;;24.42;32.04
50852;BME280;43953;45.508;-122.806;2024-03-06T01:14:36;100723.56;;;24.39;32.32
50852;BME280;43953;45.508;-122.806;2024-03-06T01:15:08;100724.09;;;24.41;32.28
50852;BME280;43953;45.508;-122.806;2024-03-06T01:15:39;100735.91;;;24.42;32.35
50852;BME280;43953;45.508;-122.806;2024-03-06T01:16:11;100727.66;;;24.42;32.40
50852;BME280;43953;45.508;-122.806;2024-03-06T01:16:43;100726.84;;;24.41;32.27
50852;BME280;43953;45.508;-122.806;2024-03-06T01:17:15;100730.41;;;24.42;32.40
50852;BME280;43953;45.508;-122.806;2024-03-06T01:17:46;100726.84;;;24.41;32.58
50852;BME280;43953;45.508;-122.806;2024-03-06T01:18:18;100729.59;;;24.41;32.24
50852;BME280;43953;45.508;-122.806;2024-03-06T01:18:50;100731.53;;;24.41;32.10
50852;BME280;43953;45.508;-122.806;2024-03-06T01:19:22;100727.97;;;24.40;32.38
50852;BME280;43953;45.508;-122.806;2024-03-06T01:19:54;100729.66;;;24.36;32.41
50852;BME280;43953;45.508;-122.806;2024-03-06T01:20:26;100729.59;;;24.41;32.33
50852;BME280;43953;45.508;-122.806;2024-03-06T01:20:58;100730.72;;;24.40;32.25
50852;BME280;43953;45.508;-122.806;2024-03-06T01:21:30;100730.72;;;24.40;32.28
50852;BME280;43953;45.508;-122.806;2024-03-06T01:22:01;100730.72;;;24.40;32.39
50852;BME280;43953;45.508;-122.806;2024-03-06T01:22:36;100730.72;;;24.40;32.55
50852;BME280;43953;45.508;-122.806;2024-03-06T01:23:08;100730.19;;;24.38;32.50
50852;BME280;43953;45.508;-122.806;2024-03-06T01:23:40;100730.19;;;24.38;32.21
50852;BME280;43953;45.508;-122.806;2024-03-06T01:24:12;100726.31;;;24.39;32.55
50852;BME280;43953;45.508;-122.806;2024-03-06T01:24:44;100733.75;;;24.39;32.20
50852;BME280;43953;45.508;-122.806;2024-03-06T01:25:16;100725.50;;;24.39;32.57
50852;BME280;43953;45.508;-122.806;2024-03-06T01:25:48;100719.19;;;24.38;32.39
50852;BME280;43953;45.508;-122.806;2024-03-06T01:26:19;100717.13;;;24.30;32.48
50852;BME280;43953;45.508;-122.806;2024-03-06T01:26:52;100727.97;;;24.40;32.03
50852;BME280;43953;45.508;-122.806;2024-03-06T01:27:24;100725.75;;;24.42;32.49
50852;BME280;43953;45.508;-122.806;2024-03-06T01:27:56;100722.69;;;24.44;32.39
50852;BME280;43953;45.508;-122.806;2024-03-06T01:28:27;100720.44;;;24.46;32.29
50852;BME280;43953;45.508;-122.806;2024-03-06T01:28:59;100729.22;;;24.48;32.55
50852;BME280;43953;45.508;-122.806;2024-03-06T01:29:32;100725.88;;;24.51;32.37
50852;BME280;43953;45.508;-122.806;2024-03-06T01:30:04;100726.38;;;24.53;32.17
50852;BME280;43953;45.508;-122.806;2024-03-06T01:30:36;100726.59;;;24.57;32.18
50852;BME280;43953;45.508;-122.806;2024-03-06T01:31:08;100729.88;;;24.59;32.28
50852;BME280;43953;45.508;-122.806;2024-03-06T01:31:39;100724.84;;;24.61;32.10
50852;BME280;43953;45.508;-122.806;2024-03-06T01:32:11;100726.50;;;24.62;32.16
50852;BME280;43953;45.508;-122.806;2024-03-06T01:32:44;100730.88;;;24.63;31.92
50852;BME280;43953;45.508;-122.806;2024-03-06T01:33:15;100730.88;;;24.63;32.05
50852;BME280;43953;45.508;-122.806;2024-03-06T01:33:47;100722.09;;;24.61;32.13
50852;BME280;43953;45.508;-122.806;2024-03-06T01:34:19;100727.00;;;24.64;31.78
50852;BME280;43953;45.508;-122.806;2024-03-06T01:34:51;100730.88;;;24.63;31.85
50852;BME280;43953;45.508;-122.806;2024-03-06T01:35:24;100728.13;;;24.63;32.00
50852;BME280;43953;45.508;-122.806;2024-03-06T01:35:55;100728.44;;;24.61;32.03
50852;BME280;43953;45.508;-122.806;2024-03-06T01:36:27;100732.31;;;24.60;31.73
50852;BME280;43953;45.508;-122.806;2024-03-06T01:36:59;100726.78;;;24.60;31.71
50852;BME280;43953;45.508;-122.806;2024-03-06T01:37:30;100726.00;;;24.60;31.68
50852;BME280;43953;45.508;-122.806;2024-03-06T01:38:02;100722.72;;;24.58;31.58
50852;BME280;43953;45.508;-122.806;2024-03-06T01:38:34;100725.78;;;24.56;31.60
50852;BME280;43953;45.508;-122.806;2024-03-06T01:39:06;100720.28;;;24.56;31.98
50852;BME280;43953;45.508;-122.806;2024-03-06T01:39:38;100730.75;;;24.54;31.85
50852;BME280;43953;45.508;-122.806;2024-03-06T01:40:10;100729.13;;;24.53;31.66
50852;BME280;43953;45.508;-122.806;2024-03-06T01:40:45;100734.94;;;24.51;31.59
50852;BME280;43953;45.508;-122.806;2024-03-06T01:41:16;100729.44;;;24.51;31.61
50852;BME280;43953;45.508;-122.806;2024-03-06T01:41:50;100726.19;;;24.49;31.57
50852;BME280;43953;45.508;-122.806;2024-03-06T01:42:21;100719.03;;;24.48;31.41
50852;BME280;43953;45.508;-122.806;2024-03-06T01:42:53;100728.09;;;24.49;31.64
50852;BME280;43953;45.508;-122.806;2024-03-06T01:43:25;100730.03;;;24.48;31.77
50852;BME280;43953;45.508;-122.806;2024-03-06T01:43:57;100727.59;;;24.47;31.73
50852;BME280;43953;45.508;-122.806;2024-03-06T01:44:29;100726.78;;;24.46;31.88
50852;BME280;43953;45.508;-122.806;2024-03-06T01:45:02;100728.69;;;24.46;31.79
50852;BME280;43953;45.508;-122.806;2024-03-06T01:45:35;100724.31;;;24.45;31.66
50852;BME280;43953;45.508;-122.806;2024-03-06T01:46:06;100730.63;;;24.45;31.72
50852;BME280;43953;45.508;-122.806;2024-03-06T01:46:39;100729.81;;;24.45;32.11
50852;BME280;43953;45.508;-122.806;2024-03-06T01:47:10;100729.00;;;24.44;32.06
50852;BME280;43953;45.508;-122.806;2024-03-06T01:47:42;100730.16;;;24.43;32.08
50852;BME280;43953;45.508;-122.806;2024-03-06T01:48:15;100726.53;;;24.43;31.98
50852;BME280;43953;45.508;-122.806;2024-03-06T01:48:47;100736.75;;;24.42;32.04
50852;BME280;43953;45.508;-122.806;2024-03-06T01:49:19;100731.25;;;24.42;32.12
50852;BME280;43953;45.508;-122.806;2024-03-06T01:49:51;100733.47;;;24.40;32.21
50852;BME280;43953;45.508;-122.806;2024-03-06T01:50:23;100729.59;;;24.41;32.10
50852;BME280;43953;45.508;-122.806;2024-03-06T01:50:56;100725.78;;;24.37;32.21
50852;BME280;43953;45.508;-122.806;2024-03-06T01:51:29;100734.28;;;24.41;31.82
50852;BME280;43953;45.508;-122.806;2024-03-06T01:52:01;100740.06;;;24.39;31.82
50852;BME280;43953;45.508;-122.806;2024-03-06T01:52:33;100740.59;;;24.41;32.18
50852;BME280;43953;45.508;-122.806;2024-03-06T01:53:05;100741.72;;;24.40;32.01
50852;BME280;43953;45.508;-122.806;2024-03-06T01:53:37;100745.28;;;24.41;32.17
50852;BME280;43953;45.508;-122.806;2024-03-06T01:54:09;100740.88;;;24.40;31.93
50852;BME280;43953;45.508;-122.806;2024-03-06T01:54:42;100740.59;;;24.41;32.11
50852;BME280;43953;45.508;-122.806;2024-03-06T01:55:14;100748.84;;;24.41;31.98
50852;BME280;43953;45.508;-122.806;2024-03-06T01:55:48;100737.03;;;24.41;31.83
50852;BME280;43953;45.508;-122.806;2024-03-06T01:56:20;100749.97;;;24.40;31.97
50852;BME280;43953;45.508;-122.806;2024-03-06T01:56:52;100740.59;;;24.41;31.82
50852;BME280;43953;45.508;-122.806;2024-03-06T01:57:24;100745.00;;;24.42;32.11
50852;BME280;43953;45.508;-122.806;2024-03-06T01:57:57;100743.06;;;24.43;31.84
50852;BME280;43953;45.508;-122.806;2024-03-06T01:58:29;100743.59;;;24.45;32.00
50852;BME280;43953;45.508;-122.806;2024-03-06T01:59:02;100742.16;;;24.47;31.87
50852;BME280;43953;45.508;-122.806;2024-03-06T01:59:35;100725.22;;;24.40;31.99
50852;BME280;43953;45.508;-122.806;2024-03-06T02:00:08;100734.94;;;24.51;32.22
50852;BME280;43953;45.508;-122.806;2024-03-06T02:00:44;100739.63;;;24.51;32.06
50852;BME280;43953;45.508;-122.806;2024-03-06T02:01:16;100721.34;;;24.41;32.13
50852;BME280;43953;45.508;-122.806;2024-03-06T02:01:49;100742.50;;;24.60;31.70
50852;BME280;43953;45.508;-122.806;2024-03-06T02:02:23;100740.28;;;24.62;32.08
50852;BME280;43953;45.508;-122.806;2024-03-06T02:02:55;100745.16;;;24.65;32.02
50852;BME280;43953;45.508;-122.806;2024-03-06T02:03:27;100745.16;;;24.65;31.93
50852;BME280;43953;45.508;-122.806;2024-03-06T02:03:59;100746.78;;;24.66;31.95
50852;BME280;43953;45.508;-122.806;2024-03-06T02:04:32;100740.47;;;24.65;31.87
50852;BME280;43953;45.508;-122.806;2024-03-06T02:05:04;100733.03;;;24.66;31.93
50852;BME280;43953;45.508;-122.806;2024-03-06T02:05:36;100735.78;;;24.66;31.56
50852;BME280;43953;45.508;-122.806;2024-03-06T02:06:07;100739.66;;;24.65;31.80
50852;BME280;43953;45.508;-122.806;2024-03-06T02:06:42;100741.91;;;24.63;32.01
50852;BME280;43953;45.508;-122.806;2024-03-06T02:07:14;100742.72;;;24.63;32.04
50852;BME280;43953;45.508;-122.806;2024-03-06T02:07:47;100737.53;;;24.62;32.02
50852;BME280;43953;45.508;-122.806;2024-03-06T02:08:20;100739.47;;;24.61;31.76
50852;BME280;43953;45.508;-122.806;2024-03-06T02:08:52;100748.81;;;24.60;31.87
50852;BME280;43953;45.508;-122.806;2024-03-06T02:09:23;100740.06;;;24.58;32.13
50852;BME280;43953;45.508;-122.806;2024-03-06T02:09:55;100746.38;;;24.59;31.95
50852;BME280;43953;45.508;-122.806;2024-03-06T02:10:27;100743.09;;;24.57;31.81
50852;BME280;43953;45.508;-122.806;2024-03-06T02:10:59;100743.09;;;24.57;32.22
50852;BME280;43953;45.508;-122.806;2024-03-06T02:11:33;100743.44;;;24.55;32.15
50852;BME280;43953;45.508;-122.806;2024-03-06T02:12:06;100743.44;;;24.55;32.14
50852;BME280;43953;45.508;-122.806;2024-03-06T02:12:41;100747.59;;;24.52;32.17
50852;BME280;43953;45.508;-122.806;2024-03-06T02:13:14;100744.84;;;24.52;32.33
50852;BME280;43953;45.508;-122.806;2024-03-06T02:13:46;100746.75;;;24.52;32.30
50852;BME280;43953;45.508;-122.806;2024-03-06T02:14:18;100748.69;;;24.51;32.01
50852;BME280;43953;45.508;-122.806;2024-03-06T02:14:50;100732.28;;;24.46;32.23
50852;BME280;43953;45.508;-122.806;2024-03-06T02:15:22;100740.44;;;24.51;32.06
50852;BME280;43953;45.508;-122.806;2024-03-06T02:15:53;100750.34;;;24.52;32.37
50852;BME280;43953;45.508;-122.806;2024-03-06T02:16:26;100745.94;;;24.51;32.36
50852;BME280;43953;45.508;-122.806;2024-03-06T02:16:58;100748.69;;;24.51;32.30
50852;BME280;43953;45.508;-122.806;2024-03-06T02:17:30;100741.56;;;24.50;32.08
50852;BME280;43953;45.508;-122.806;2024-03-06T02:18:05;100750.63;;;24.51;32.33
50852;BME280;43953;45.508;-122.806;2024-03-06T02:18:37;100748.69;;;24.51;32.38
50852;BME280;43953;45.508;-122.806;2024-03-06T02:19:10;100749.00;;;24.50;32.39
50852;BME280;43953;45.508;-122.806;2024-03-06T02:19:43;100751.44;;;24.51;32.45
50852;BME280;43953;45.508;-122.806;2024-03-06T02:20:15;100755.31;;;24.50;32.12
50852;BME280;43953;45.508;-122.806;2024-03-06T02:20:47;100749.81;;;24.50;32.16
50852;BME280;43953;45.508;-122.806;2024-03-06T02:21:22;100752.06;;;24.48;32.39
50852;BME280;43953;45.508;-122.806;2024-03-06T02:21:54;100751.25;;;24.48;32.42
50852;BME280;43953;45.508;-122.806;2024-03-06T02:22:26;100746.53;;;24.48;32.52
50852;BME280;43953;45.508;-122.806;2024-03-06T02:22:57;100749.28;;;24.48;32.39
50852;BME280;43953;45.508;-122.806;2024-03-06T02:23:29;100747.66;;;24.47;32.52
50852;BME280;43953;45.508;-122.806;2024-03-06T02:24:01;100749.63;;;24.47;32.10
50852;BME280;43953;45.508;-122.806;2024-03-06T02:24:33;100751.56;;;24.46;32.50
50852;BME280;43953;45.508;-122.806;2024-03-06T02:25:06;100745.22;;;24.46;32.11
50852;BME280;43953;45.508;-122.806;2024-03-06T02:25:38;100755.94;;;24.47;32.43
50852;BME280;43953;45.508;-122.806;2024-03-06T02:26:10;100751.56;;;24.46;32.45
50852;BME280;43953;45.508;-122.806;2024-03-06T02:26:42;100747.97;;;24.46;32.33
50852;BME280;43953;45.508;-122.806;2024-03-06T02:27:14;100751.56;;;24.46;32.43
50852;BME280;43953;45.508;-122.806;2024-03-06T02:27:47;100759.81;;;24.46;32.47
50852;BME280;43953;45.508;-122.806;2024-03-06T02:28:19;100754.31;;;24.46;32.69
50852;BME280;43953;45.508;-122.806;2024-03-06T02:28:55;100754.59;;;24.45;32.56
50852;BME280;43953;45.508;-122.806;2024-03-06T02:29:27;100751.84;;;24.45;32.47
50852;BME280;43953;45.508;-122.806;2024-03-06T02:29:59;100752.66;;;24.45;32.40
50852;BME280;43953;45.508;-122.806;2024-03-06T02:30:31;100751.84;;;24.45;32.40
50852;BME280;43953;45.508;-122.806;2024-03-06T02:31:07;100751.03;;;24.44;32.47
50852;BME280;43953;45.508;-122.806;2024-03-06T02:31:39;100756.53;;;24.44;32.71
50852;BME280;43953;45.508;-122.806;2024-03-06T02:32:13;100746.66;;;24.43;32.71
50852;BME280;43953;45.508;-122.806;2024-03-06T02:32:49;100750.22;;;24.44;32.74
50852;BME280;43953;45.508;-122.806;2024-03-06T02:33:21;100754.91;;;24.43;32.48
50852;BME280;43953;45.508;-122.806;2024-03-06T02:33:52;100749.41;;;24.43;32.62
50852;BME280;43953;45.508;-122.806;2024-03-06T02:34:24;100751.31;;;24.43;32.52
50852;BME280;43953;45.508;-122.806;2024-03-06T02:34:56;100753.25;;;24.42;32.73
50852;BME280;43953;45.508;-122.806;2024-03-06T02:35:28;100752.41;;;24.42;32.57
50852;BME280;43953;45.508;-122.806;2024-03-06T02:35:59;100746.91;;;24.42;32.62
50852;BME280;43953;45.508;-122.806;2024-03-06T02:36:31;100746.09;;;24.41;32.62
50852;BME280;43953;45.508;-122.806;2024-03-06T02:37:03;100744.16;;;24.42;32.57
50852;BME280;43953;45.508;-122.806;2024-03-06T02:37:35;100745.28;;;24.41;32.90
50852;BME280;43953;45.508;-122.806;2024-03-06T02:38:07;100749.97;;;24.40;32.79
50852;BME280;43953;45.508;-122.806;2024-03-06T02:38:38;100748.84;;;24.41;33.10
50852;BME280;43953;45.508;-122.806;2024-03-06T02:39:10;100751.59;;;24.41;33.14
50852;BME280;43953;45.508;-122.806;2024-03-06T02:39:42;100755.47;;;24.40;32.84
50852;BME280;43953;45.508;-122.806;2024-03-06T02:40:13;100750.78;;;24.41;33.20
50852;BME280;43953;45.508;-122.806;2024-03-06T02:40:45;100744.47;;;24.40;33.22
50852;BME280;43953;45.508;-122.806;2024-03-06T02:41:17;100753.25;;;24.42;33.08
50852;BME280;43953;45.508;-122.806;2024-03-06T02:41:49;100756.00;;;24.42;32.79